Time;durP1;ratioP1;P1;durP2;ratioP2;P2;SDS_P1;SDS_P2;PMS_P1;PMS_P2;Temp;Humidity;BMP_temperature;BMP_pressure;BME280_temperature;BME280_humidity;BME280_pressure;Samples;Min_cycle;Max_cycle;Signal;HPM_P1;HPM_P2
2023/03/08 00:00:42;;;;;;;0.60;0.60;;;18.00;72.70;;;;;;5008380;28;20050;-41
2023/03/08 00:03:10;;;;;;;1.10;0.90;;;;;;;;;;5009010;28;20046;-41
2023/03/08 00:05:39;;;;;;;1.70;0.88;;;;;;;;;;5002496;28;20046;-40
2023/03/08 00:08:06;;;;;;;0.80;0.75;;;;;;;;;;5009496;28;20042;-37
2023/03/08 00:10:33;;;;;;;1.33;0.85;;;;;;;;;;5009746;28;20042;-42
2023/03/08 00:13:00;;;;;;;0.77;0.73;;;;;;;;;;5007056;28;20045;-40
2023/03/08 00:15:27;;;;;;;0.98;0.80;;;17.90;73.20;;;;;;5009376;28;20046;-41
2023/03/08 00:17:54;;;;;;;0.60;0.60;;;;;;;;;;5011778;28;20048;-37
2023/03/08 00:20:21;;;;;;;1.50;0.88;;;;;;;;;;5010162;28;20041;-40
2023/03/08 00:22:49;;;;;;;1.52;0.90;;;;;;;;;;5001140;28;20060;-36
2023/03/08 00:25:16;;;;;;;1.17;0.88;;;;;;;;;;5011931;28;20045;-39
2023/03/08 00:27:43;;;;;;;1.08;0.75;;;17.80;72.90;;;;;;5009228;28;20116;-41
2023/03/08 00:30:12;;;;;;;0.55;0.55;;;;;;;;;;5009293;28;20054;-37
2023/03/08 00:32:39;;;;;;;0.98;0.80;;;;;;;;;;5003664;28;20042;-41
2023/03/08 00:35:07;;;;;;;0.70;0.70;;;;;;;;;;5008553;28;20049;-37
2023/03/08 00:37:33;;;;;;;0.88;0.70;;;18.20;73.30;;;;;;5011095;28;20410;-41
2023/03/08 00:40:02;;;;;;;0.60;0.60;;;17.90;43.30;;;;;;5008759;28;20056;-41
2023/03/08 00:42:29;;;;;;;1.15;0.82;;;;;;;;;;5007602;28;20415;-40
2023/03/08 00:44:56;;;;;;;0.70;0.70;;;;;;;;;;5010802;28;20521;-41
2023/03/08 00:47:23;;;;;;;0.75;0.75;;;;;;;;;;5009584;28;20050;-41
2023/03/08 00:49:50;;;;;;;1.20;0.90;;;17.80;73.10;;;;;;5008582;28;20133;-40
2023/03/08 00:52:17;;;;;;;0.60;0.60;;;;;;;;;;5010576;28;20495;-34
2023/03/08 00:54:44;;;;;;;1.08;0.80;;;;;;;;;;5006383;28;20060;-40
2023/03/08 00:57:12;;;;;;;0.80;0.80;;;17.80;43.50;;;;;;5008796;28;20053;-34
2023/03/08 00:59:39;;;;;;;1.20;0.90;;;;;;;;;;5011769;28;20422;-37
2023/03/08 01:02:06;;;;;;;1.02;0.70;;;;;;;;;;5001661;28;20605;-41
2023/03/08 01:04:33;;;;;;;1.45;1.00;;;;;;;;;;5012775;28;20052;-41
2023/03/08 01:07:00;;;;;;;0.70;0.70;;;;;;;;;;5012637;28;20052;-40
2023/03/08 01:09:27;;;;;;;1.10;0.90;;;;;;;;;;5012687;28;20054;-38
2023/03/08 01:11:54;;;;;;;0.80;0.70;;;;;;;;;;5007479;28;20046;-39
2023/03/08 01:14:23;;;;;;;1.15;0.90;;;;;;;;;;5015302;28;20522;-37
2023/03/08 01:16:50;;;;;;;1.10;0.80;;;;;;;;;;5012310;28;20486;-39
2023/03/08 01:19:17;;;;;;;1.13;1.00;;;;;;;;;;5012512;28;20052;-42
2023/03/08 01:21:44;;;;;;;1.52;0.90;;;;;;;;;;5012301;28;20046;-38
2023/03/08 01:24:11;;;;;;;1.30;0.90;;;17.50;73.60;;;;;;5012227;28;20042;-41
2023/03/08 01:26:38;;;;;;;1.30;0.80;;;;;;;;;;4999975;28;20042;-41
2023/03/08 01:29:05;;;;;;;0.98;0.75;;;;;;;;;;5012125;28;20502;-40
2023/03/08 01:31:34;;;;;;;1.90;0.82;;;;;;;;;;5006236;28;20073;-38
2023/03/08 01:34:01;;;;;;;0.77;0.77;;;;;;;;;;5010766;28;20050;-37
2023/03/08 01:36:28;;;;;;;1.00;0.70;;;;;;;;;;5014585;28;20046;-42
2023/03/08 01:38:55;;;;;;;1.00;0.82;;;;;;;;;;5014525;28;20046;-38
2023/03/08 01:41:22;;;;;;;0.82;0.80;;;;;;;;;;5008890;28;20050;-39
2023/03/08 01:43:49;;;;;;;0.80;0.70;;;15.60;41.50;;;;;;5011021;28;20513;-38
2023/03/08 01:46:24;;;;;;;1.05;0.75;;;17.60;43.60;;;;;;5011805;28;20050;-41
2023/03/08 01:48:54;;;;;;;1.08;0.80;;;17.60;43.70;;;;;;5011757;28;20050;-39
2023/03/08 01:51:22;;;;;;;1.13;0.80;;;17.70;43.60;;;;;;5011952;28;20038;-40
2023/03/08 01:53:49;;;;;;;1.33;0.93;;;;;;;;;;5014718;28;20052;-35
2023/03/08 01:56:16;;;;;;;0.98;0.90;;;;;;;;;;5009263;28;20046;-41
2023/03/08 01:58:44;;;;;;;0.90;0.75;;;;;;;;;;5011694;28;20046;-41
2023/03/08 02:01:11;;;;;;;0.70;0.70;;;;;;;;;;5010089;28;20050;-42
2023/03/08 02:03:38;;;;;;;0.82;0.70;;;17.90;73.10;;;;;;5007820;28;20049;-41
2023/03/08 02:06:06;;;;;;;1.05;0.73;;;;;;;;;;5012692;28;20407;-39
2023/03/08 02:08:33;;;;;;;1.05;0.75;;;;;;;;;;5014423;28;20041;-38
2023/03/08 02:11:00;;;;;;;1.75;0.90;;;;;;;;;;5011412;28;20049;-40
2023/03/08 02:13:27;;;;;;;0.93;0.80;;;;;;;;;;5007049;28;20056;-37
2023/03/08 02:15:55;;;;;;;1.80;0.95;;;;;;;;;;5007734;28;20054;-41
2023/03/08 02:18:22;;;;;;;1.42;0.90;;;;;;;;;;5011189;28;20043;-41
2023/03/08 02:20:49;;;;;;;1.20;0.70;;;;;;;;;;5014371;28;20049;-37
2023/03/08 02:23:19;;;;;;;0.77;0.70;;;18.00;42.90;;;;;;5011124;28;20046;-41
2023/03/08 02:25:50;;;;;;;0.80;0.73;;;;;;;;;;5011835;28;20045;-40
2023/03/08 02:28:17;;;;;;;1.13;0.90;;;;;;;;;;5006413;28;20421;-41
2023/03/08 02:30:44;;;;;;;0.80;0.80;;;;;;;;;;5011036;28;20495;-38
2023/03/08 02:33:11;;;;;;;1.00;0.82;;;;;;;;;;5005485;28;20053;-40
2023/03/08 02:35:41;;;;;;;1.05;0.95;;;;;;;;;;5004361;28;20513;-37
2023/03/08 02:38:08;;;;;;;1.10;0.95;;;;;;;;;;5013464;28;20057;-37
2023/03/08 02:40:36;;;;;;;0.80;0.80;;;;;;;;;;5011118;28;20046;-41
2023/03/08 02:43:03;;;;;;;0.73;0.73;;;;;;;;;;5006828;28;20049;-41
2023/03/08 02:45:30;;;;;;;1.33;0.80;;;;;;;;;;5010620;28;20060;-38
2023/03/08 02:47:57;;;;;;;0.70;0.70;;;;;;;;;;5012884;28;20060;-42
2023/03/08 02:50:25;;;;;;;1.02;0.90;;;;;;;;;;5011957;28;20064;-38
2023/03/08 02:52:52;;;;;;;1.63;1.15;;;;;;;;;;5002334;28;20484;-41
2023/03/08 02:55:19;;;;;;;1.10;0.80;;;;;;;;;;5008284;28;20529;-37
2023/03/08 02:57:47;;;;;;;1.95;0.90;;;18.50;41.50;;;;;;5011120;28;20050;-41
2023/03/08 03:00:14;;;;;;;0.80;0.80;;;;;;;;;;5010799;28;20425;-40
2023/03/08 03:02:41;;;;;;;1.08;0.82;;;;;;;;;;5006266;28;20052;-38
2023/03/08 03:05:10;;;;;;;0.75;0.70;;;;;;;;;;5009683;28;20052;-41
2023/03/08 03:07:37;;;;;;;0.95;0.80;;;;;;;;;;5010761;28;20056;-41
2023/03/08 03:10:04;;;;;;;1.88;1.00;;;;;;;;;;5010308;28;20042;-41
2023/03/08 03:12:31;;;;;;;0.98;0.85;;;;;;;;;;5007289;28;20115;-38
2023/03/08 03:15:01;;;;;;;1.70;1.00;;;;;;;;;;5012187;28;20054;-41
2023/03/08 03:17:28;;;;;;;0.82;0.80;;;;;;;;;;5011989;28;20049;-38
2023/03/08 03:19:55;;;;;;;1.30;0.88;;;;;;;;;;5010392;28;20048;-41
2023/03/08 03:22:22;;;;;;;1.40;1.02;;;;;;;;;;5006506;28;20058;-41
2023/03/08 03:24:50;;;;;;;0.70;0.70;;;18.80;41.20;;;;;;5007418;28;20048;-36
2023/03/08 03:27:17;;;;;;;1.10;1.00;;;;;;;;;;5009934;28;20518;-41
2023/03/08 03:29:44;;;;;;;0.98;0.85;;;;;;;;;;5013317;28;20046;-35
2023/03/08 03:32:12;;;;;;;1.38;1.10;;;;;;;;;;5007838;28;20042;-35
2023/03/08 03:34:39;;;;;;;1.17;1.00;;;;;;;;;;5008293;28;20048;-41
2023/03/08 03:37:06;;;;;;;1.45;1.00;;;18.70;62.50;;;;;;5012307;28;20053;-41
2023/03/08 03:39:36;;;;;;;1.17;0.90;;;;;;;;;;5009488;28;20423;-42
2023/03/08 03:42:02;;;;;;;1.02;0.93;;;20.00;72.80;;;;;;5011038;28;20076;-41
2023/03/08 03:44:29;;;;;;;1.23;1.00;;;18.60;71.70;;;;;;5011294;28;20438;-40
2023/03/08 03:46:56;;;;;;;1.13;0.98;;;;;;;;;;5009171;28;20419;-40
2023/03/08 03:49:25;;;;;;;1.00;0.90;;;;;;;;;;5009338;28;20499;-41
2023/03/08 03:51:52;;;;;;;1.00;0.90;;;;;;;;;;5008740;28;20053;-41
2023/03/08 03:54:19;;;;;;;1.20;1.00;;;;;;;;;;4998847;28;20111;-40
2023/03/08 03:56:46;;;;;;;0.80;0.80;;;;;;;;;;5005985;28;20042;-39
2023/03/08 03:59:13;;;;;;;0.93;0.82;;;;;;;;;;5012239;28;20045;-40
2023/03/08 04:01:40;;;;;;;1.15;1.00;;;;;;;;;;5012449;28;20045;-41
2023/03/08 04:04:07;;;;;;;1.50;1.10;;;;;;;;;;5005761;28;20076;-40
2023/03/08 04:06:35;;;;;;;0.98;0.90;;;;;;;;;;5005837;28;20410;-40
2023/03/08 04:09:04;;;;;;;1.17;1.08;;;18.80;41.50;;;;;;5008700;28;20426;-40
2023/03/08 04:11:32;;;;;;;1.13;1.00;;;18.90;41.50;;;;;;5007382;28;20416;-38
2023/03/08 04:13:59;;;;;;;1.23;1.00;;;;;;;;;;5007826;28;20395;-40
2023/03/08 04:16:27;;;;;;;1.60;1.08;;;;;;;;;;5012080;28;20509;-39
2023/03/08 04:18:54;;;;;;;1.42;1.08;;;18.90;40.70;;;;;;5012123;28;20407;-41
2023/03/08 04:21:21;;;;;;;1.30;1.10;;;;;;;;;;5012180;28;20046;-36
2023/03/08 04:23:49;;;;;;;1.60;1.10;;;;;;;;;;5010862;28;20045;-42
2023/03/08 04:26:16;;;;;;;1.42;1.05;;;19.40;72.00;;;;;;5011560;28;20049;-41
2023/03/08 04:28:43;;;;;;;1.30;1.00;;;;;;;;;;5012028;28;20052;-40
2023/03/08 04:31:14;;;;;;;1.02;1.00;;;;;;;;;;5011772;28;20042;-41
2023/03/08 04:33:41;;;;;;;1.30;1.10;;;;;;;;;;5011145;28;20056;-40
2023/03/08 04:36:08;;;;;;;1.67;1.20;;;;;;;;;;5011153;28;20474;-37
2023/03/08 04:38:35;;;;;;;1.42;1.00;;;;;;;;;;5010815;28;20068;-39
2023/03/08 04:41:06;;;;;;;1.77;1.20;;;;;;;;;;5010419;28;20188;-38
2023/03/08 04:43:33;;;;;;;1.70;1.10;;;;;;;;;;5006928;28;20050;-42
2023/03/08 04:46:00;;;;;;;1.30;0.93;;;;;;;;;;5011158;28;20067;-41
2023/03/08 04:48:28;;;;;;;1.20;1.05;;;;;;;;;;5011602;28;20063;-40
2023/03/08 04:50:55;;;;;;;2.00;1.17;;;;;;;;;;5011067;28;20502;-36
2023/03/08 04:53:22;;;;;;;1.90;1.10;;;;;;;;;;5003130;28;20046;-41
2023/03/08 04:55:49;;;;;;;1.60;1.20;;;;;;;;;;5011742;28;20050;-41
2023/03/08 04:58:17;;;;;;;2.63;1.40;;;;;;;;;;5011529;28;20073;-37
2023/03/08 05:00:45;;;;;;;1.33;1.10;;;;;;;;;;5010965;28;20065;-35
2023/03/08 05:03:12;;;;;;;1.95;1.20;;;;;;;;;;5000424;28;20402;-41
2023/03/08 05:05:39;;;;;;;1.73;1.30;;;;;;;;;;5007435;28;20438;-40
2023/03/08 05:08:06;;;;;;;1.50;1.00;;;;;;;;;;5009789;28;20045;-40
2023/03/08 05:10:33;;;;;;;1.33;1.13;;;;;;;;;;5011942;28;20052;-39
2023/03/08 05:13:00;;;;;;;1.58;1.10;;;;;;;;;;5003863;28;20042;-41
2023/03/08 05:15:28;;;;;;;1.70;1.17;;;;;;;;;;5009812;28;20046;-37
2023/03/08 05:17:56;;;;;;;2.63;1.20;;;;;;;;;;5009704;28;20430;-41
2023/03/08 05:20:23;;;;;;;1.88;1.30;;;;;;;;;;5009536;28;20530;-40
2023/03/08 05:22:51;;;;;;;1.45;1.20;;;;;;;;;;5003894;28;20050;-37
2023/03/08 05:25:18;;;;;;;1.60;1.27;;;;;;;;;;5011202;28;20052;-40
2023/03/08 05:27:45;;;;;;;1.50;1.15;;;;;;;;;;5009524;28;20041;-40
2023/03/08 05:30:12;;;;;;;1.25;1.10;;;19.70;71.80;;;;;;5009411;28;20046;-41
2023/03/08 05:32:41;;;;;;;1.42;1.30;;;;;;;;;;5009060;28;20125;-39
2023/03/08 05:35:09;;;;;;;1.83;1.30;;;19.20;40.40;;;;;;5009135;28;20054;-41
2023/03/08 05:37:36;;;;;;;1.58;1.20;;;;;;;;;;5011039;28;20050;-39
2023/03/08 05:40:05;;;;;;;1.70;1.20;;;;;;;;;;5009166;28;20042;-40
2023/03/08 05:42:32;;;;;;;1.60;1.30;;;;;;;;;;5004241;28;20042;-40
2023/03/08 05:44:58;;;;;;;1.70;1.30;;;19.20;70.90;;;;;;5006433;28;20056;-41
2023/03/08 05:47:25;;;;;;;2.45;1.20;;;;;;;;;;5009350;28;20053;-41
2023/03/08 05:49:54;;;;;;;1.63;1.20;;;;;;;;;;5014033;28;20598;-41
2023/03/08 05:52:21;;;;;;;1.98;1.20;;;;;;;;;;5010019;28;20049;-39
2023/03/08 05:54:48;;;;;;;1.90;1.33;;;;;;;;;;5011504;28;20052;-40
2023/03/08 05:57:15;;;;;;;1.58;1.15;;;;;;;;;;4998858;28;20041;-41
2023/03/08 05:59:42;;;;;;;2.22;1.20;;;;;;;;;;5010919;28;20050;-41
2023/03/08 06:02:09;;;;;;;1.50;1.25;;;;;;;;;;4996769;28;20065;-40
2023/03/08 06:04:36;;;;;;;1.48;1.20;;;;;;;;;;5009525;28;20052;-40
2023/03/08 06:07:04;;;;;;;1.35;1.20;;;;;;;;;;5012940;28;20042;-41
2023/03/08 06:09:31;;;;;;;1.40;1.30;;;;;;;;;;5013118;28;20042;-41
2023/03/08 06:11:58;;;;;;;1.70;1.30;;;;;;;;;;5012656;28;20140;-37
2023/03/08 06:14:25;;;;;;;2.03;1.30;;;19.20;71.20;;;;;;5004304;28;20045;-41
2023/03/08 06:16:52;;;;;;;1.50;1.20;;;;;;;;;;5014226;28;20042;-41
2023/03/08 06:19:19;;;;;;;1.60;1.40;;;;;;;;;;5013346;28;20057;-41
2023/03/08 06:21:46;;;;;;;1.83;1.38;;;;;;;;;;5012371;28;20125;-40
2023/03/08 06:24:15;;;;;;;2.25;1.35;;;;;;;;;;5007747;28;20414;-41
2023/03/08 06:26:42;;;;;;;1.98;1.42;;;;;;;;;;5012504;28;20388;-38
2023/03/08 06:29:09;;;;;;;2.00;1.60;;;;;;;;;;5012213;28;20064;-40
2023/03/08 06:31:35;;;;;;;1.70;1.30;;;18.90;70.40;;;;;;5014009;28;20046;-41
2023/03/08 06:34:03;;;;;;;1.90;1.30;;;;;;;;;;5005559;28;20519;-41
2023/03/08 06:36:30;;;;;;;2.13;1.35;;;;;;;;;;5011674;28;20048;-41
2023/03/08 06:38:58;;;;;;;1.67;1.40;;;;;;;;;;5012109;28;20046;-37
2023/03/08 06:41:28;;;;;;;1.65;1.25;;;;;;;;;;5011694;28;20050;-40
2023/03/08 06:43:55;;;;;;;1.90;1.33;;;;;;;;;;5009195;28;20454;-41
2023/03/08 06:46:22;;;;;;;1.90;1.30;;;;;;;;;;5012971;28;20042;-39
2023/03/08 06:48:49;;;;;;;1.40;1.30;;;;;;;;;;5011493;28;20042;-35
2023/03/08 06:51:16;;;;;;;2.03;1.20;;;;;;;;;;5011834;28;20053;-40
2023/03/08 06:53:44;;;;;;;2.20;1.38;;;;;;;;;;5007991;28;20077;-41
2023/03/08 06:56:12;;;;;;;1.58;1.48;;;;;;;;;;5008612;28;20077;-37
2023/03/08 06:58:40;;;;;;;1.25;1.10;;;;;;;;;;5008192;28;20080;-40
2023/03/08 07:01:08;;;;;;;1.77;1.48;;;;;;;;;;5004009;28;20512;-40
2023/03/08 07:03:35;;;;;;;2.00;1.40;;;;;;;;;;4987872;28;20046;-41
2023/03/08 07:06:03;;;;;;;2.80;1.40;;;19.30;40.30;;;;;;4978814;28;20508;-37
2023/03/08 07:08:30;;;;;;;2.28;1.40;;;;;;;;;;4974671;28;20061;-40
2023/03/08 07:10:58;;;;;;;1.83;1.35;;;18.00;56.10;;;;;;4974482;28;20050;-40
2023/03/08 07:13:25;;;;;;;3.47;1.80;;;;;;;;;;4983762;28;20388;-39
2023/03/08 07:15:53;;;;;;;1.80;1.35;;;19.30;40.40;;;;;;4994027;28;20054;-41
2023/03/08 07:18:20;;;;;;;1.90;1.50;;;19.10;70.50;;;;;;4988624;28;20113;-41
2023/03/08 07:20:47;;;;;;;2.40;1.40;;;;;;;;;;4974425;28;20047;-38
2023/03/08 07:23:14;;;;;;;3.90;1.40;;;;;;;;;;4981685;28;20046;-39
2023/03/08 07:25:41;;;;;;;2.92;1.50;;;;;;;;;;4993806;28;20050;-42
2023/03/08 07:28:08;;;;;;;4.50;1.60;;;;;;;;;;4993871;28;20056;-40
2023/03/08 07:30:35;;;;;;;2.22;1.42;;;;;;;;;;4993374;28;20050;-42
2023/03/08 07:33:03;;;;;;;2.72;1.52;;;;;;;;;;4993234;28;20046;-38
2023/03/08 07:35:30;;;;;;;3.58;1.60;;;;;;;;;;4993252;28;20407;-41
2023/03/08 07:37:57;;;;;;;1.98;1.50;;;;;;;;;;4991678;28;20502;-39
2023/03/08 07:40:24;;;;;;;3.00;1.40;;;;;;;;;;4987634;28;20045;-42
2023/03/08 07:42:51;;;;;;;2.55;1.70;;;;;;;;;;4992500;28;20056;-37
2023/03/08 07:45:18;;;;;;;4.20;1.50;;;;;;;;;;4993617;28;20078;-41
2023/03/08 07:47:45;;;;;;;2.08;1.70;;;;;;;;;;4993721;28;20050;-37
2023/03/08 07:50:13;;;;;;;2.35;1.50;;;19.60;43.90;;;;;;4993624;28;20042;-40
2023/03/08 07:52:40;;;;;;;1.92;1.40;;;;;;;;;;4992957;28;20438;-41
2023/03/08 07:55:08;;;;;;;2.33;1.40;;;19.60;41.80;;;;;;4993091;28;20527;-42
2023/03/08 07:57:35;;;;;;;2.17;1.67;;;;;;;;;;4993183;28;20050;-42
2023/03/08 08:00:06;;;;;;;1.77;1.35;;;;;;;;;;4992986;28;20057;-39
2023/03/08 08:02:33;;;;;;;2.20;1.27;;;;;;;;;;4992497;28;20121;-41
2023/03/08 08:05:00;;;;;;;1.63;1.20;;;;;;;;;;4992023;28;20061;-37
2023/03/08 08:07:28;;;;;;;2.58;1.50;;;22.70;42.30;;;;;;4991140;28;20050;-41
2023/03/08 08:09:55;;;;;;;2.60;1.50;;;;;;;;;;4992450;28;20049;-42
2023/03/08 08:12:22;;;;;;;1.92;1.40;;;;;;;;;;4992531;28;20050;-42
2023/03/08 08:14:50;;;;;;;2.10;1.10;;;19.90;41.70;;;;;;4992675;28;20050;-42
2023/03/08 08:17:18;;;;;;;2.00;1.30;;;;;;;;;;4992675;28;20162;-41
2023/03/08 08:19:45;;;;;;;2.03;1.20;;;;;;;;;;4990001;28;20484;-43
2023/03/08 08:22:12;;;;;;;4.05;1.27;;;;;;;;;;4992436;28;20057;-42
2023/03/08 08:24:40;;;;;;;2.50;1.30;;;20.10;41.10;;;;;;4990239;28;20050;-41
2023/03/08 08:27:07;;;;;;;2.03;1.48;;;;;;;;;;4992371;28;20099;-42
2023/03/08 08:29:34;;;;;;;1.52;1.25;;;;;;;;;;4992376;28;20046;-42
2023/03/08 08:32:03;;;;;;;1.38;1.10;;;;;;;;;;4992450;28;20062;-35
2023/03/08 08:34:30;;;;;;;1.75;1.15;;;;;;;;;;4992153;28;20056;-41
2023/03/08 08:36:57;;;;;;;1.40;1.20;;;;;;;;;;4991741;28;20048;-42
2023/03/08 08:39:24;;;;;;;1.90;1.20;;;;;;;;;;4989548;28;20412;-41
2023/03/08 08:41:52;;;;;;;3.40;1.20;;;20.20;41.40;;;;;;4992216;28;20480;-41
2023/03/08 08:44:19;;;;;;;2.08;1.08;;;;;;;;;;4992032;28;20058;-40
2023/03/08 08:46:46;;;;;;;1.40;1.02;;;;;;;;;;4992147;28;20133;-41
2023/03/08 08:49:14;;;;;;;2.58;1.30;;;;;;;;;;4992082;28;20050;-42
2023/03/08 08:51:41;;;;;;;2.67;1.23;;;;;;;;;;4992346;28;20116;-42
2023/03/08 08:54:08;;;;;;;1.52;1.20;;;;;;;;;;4991931;28;20056;-38
2023/03/08 08:56:41;;;;;;;2.20;1.25;;;;;;;;;;4992334;28;20384;-42
2023/03/08 08:59:10;;;;;;;1.27;1.10;;;;;;;;;;4989770;28;20504;-40
2023/03/08 09:01:42;;;;;;;1.88;1.30;;;;;;;;;;4991897;28;20488;-42
2023/03/08 09:04:09;;;;;;;2.13;1.20;;;22.00;71.90;;;;;;4991520;28;20050;-42
2023/03/08 09:06:36;;;;;;;1.80;1.20;;;;;;;;;;4991919;28;20047;-42
2023/03/08 09:09:03;;;;;;;1.92;1.30;;;;;;;;;;4991826;28;20060;-42
2023/03/08 09:11:30;;;;;;;1.98;1.30;;;;;;;;;;4990438;28;20047;-38
2023/03/08 09:13:57;;;;;;;1.67;1.20;;;;;;;;;;4991691;28;20052;-42
2023/03/08 09:16:26;;;;;;;2.28;1.27;;;;;;;;;;4991246;28;20121;-40
2023/03/08 09:18:53;;;;;;;1.45;1.17;;;20.40;72.30;;;;;;4991774;28;20049;-41
2023/03/08 09:21:20;;;;;;;2.00;1.30;;;;;;;;;;4991020;28;20619;-39
2023/03/08 09:23:48;;;;;;;1.67;1.20;;;;;;;;;;4993193;28;20050;-42
2023/03/08 09:26:15;;;;;;;2.15;1.23;;;;;;;;;;4995001;28;20050;-37
2023/03/08 09:28:42;;;;;;;1.33;1.10;;;;;;;;;;4995528;28;20053;-42
2023/03/08 09:31:11;;;;;;;1.92;1.40;;;;;;;;;;4995593;28;20050;-38
2023/03/08 09:33:40;;;;;;;1.38;1.15;;;;;;;;;;4994632;28;20042;-42
2023/03/08 09:36:07;;;;;;;2.22;1.30;;;;;;;;;;4993326;28;20065;-38
2023/03/08 09:38:34;;;;;;;2.00;1.30;;;;;;;;;;4995367;28;20053;-41
2023/03/08 09:41:08;;;;;;;1.48;1.20;;;20.80;39.60;;;;;;4995625;28;20048;-40
2023/03/08 09:43:41;;;;;;;1.65;1.30;;;20.80;40.20;;;;;;4990964;28;20057;-40
2023/03/08 09:46:09;;;;;;;2.70;1.60;;;;;;;;;;4994183;28;20058;-42
2023/03/08 09:48:36;;;;;;;5.55;1.95;;;;;;;;;;4995113;28;20057;-42
2023/03/08 09:51:05;;;;;;;3.55;1.75;;;;;;;;;;4995615;28;20121;-37
2023/03/08 09:53:33;;;;;;;9.02;2.20;;;;;;;;;;4989951;28;20043;-37
2023/03/08 09:56:02;;;;;;;6.90;2.22;;;20.90;39.40;;;;;;4991940;28;20057;-40
2023/03/08 09:58:32;;;;;;;6.72;2.05;;;;;;;;;;4995102;28;20058;-41
2023/03/08 10:01:00;;;;;;;8.98;2.60;;;;;;;;;;4995680;28;20050;-41
2023/03/08 10:04:10;;;;;;;6.25;2.63;;;21.00;39.50;;;;;;4994711;28;20062;-42
2023/03/08 10:06:40;;;;;;;7.55;2.80;;;;;;;;;;4991013;28;20046;-42
2023/03/08 10:09:08;;;;;;;5.07;2.10;;;;;;;;;;4988906;28;20057;-41
2023/03/08 10:11:37;;;;;;;5.40;2.70;;;21.10;39.40;;;;;;4987018;28;20042;-42
2023/03/08 10:14:11;;;;;;;5.38;2.17;;;21.10;39.20;;;;;;4984493;28;20050;-37
2023/03/08 10:16:39;;;;;;;4.57;2.20;;;21.10;39.20;;;;;;4985923;28;20050;-36
2023/03/08 10:19:11;;;;;;;7.13;2.65;;;21.20;39.20;;;;;;4992348;28;20065;-37
2023/03/08 10:21:40;;;;;;;4.10;2.22;;;21.20;39.20;;;;;;4988886;28;20068;-38
2023/03/08 10:24:16;;;;;;;5.50;2.22;;;21.20;39.00;;;;;;4985987;28;20054;-40
2023/03/08 10:26:43;;;;;;;4.50;2.72;;;;;;;;;;4989954;28;20747;-42
2023/03/08 10:29:11;;;;;;;4.45;1.95;;;21.20;38.90;;;;;;4984928;28;20145;-36
2023/03/08 10:31:38;;;;;;;3.78;1.90;;;;;;;;;;4992817;28;20046;-40
2023/03/08 10:34:11;;;;;;;3.85;2.10;;;21.10;38.80;;;;;;4994027;28;20038;-41
2023/03/08 10:36:49;;;;;;;3.28;2.08;;;21.20;38.90;;;;;;4991220;28;20042;-42
2023/03/08 10:39:16;;;;;;;4.32;2.08;;;;;;;;;;4991943;28;20046;-42
2023/03/08 10:41:43;;;;;;;2.78;1.98;;;;;;;;;;4993735;28;20046;-38
2023/03/08 10:44:13;;;;;;;3.20;2.10;;;;;;;;;;4990197;28;20323;-41
2023/03/08 10:46:46;;;;;;;3.50;2.10;;;21.10;38.80;;;;;;4979388;28;20117;-42
2023/03/08 10:49:15;;;;;;;5.57;2.55;;;;;;;;;;4984396;28;20054;-37
2023/03/08 10:51:53;;;;;;;4.40;2.58;;;21.10;39.00;;;;;;4992354;28;20072;-41
2023/03/08 10:54:20;;;;;;;5.30;2.35;;;;;;;;;;4994284;28;20086;-41
2023/03/08 10:56:51;;;;;;;7.28;2.78;;;;;;;;;;4994339;28;20057;-37
2023/03/08 10:59:20;;;;;;;3.97;2.47;;;;;;;;;;4994688;28;20050;-41
2023/03/08 11:01:48;;;;;;;6.85;2.83;;;;;;;;;;4994546;28;20042;-37
2023/03/08 11:04:16;;;;;;;4.15;2.50;;;20.90;39.20;;;;;;4994296;28;20050;-41
2023/03/08 11:06:43;;;;;;;6.45;2.97;;;;;;;;;;4994265;28;20056;-41
2023/03/08 11:09:21;;;;;;;5.55;2.65;;;20.90;39.20;;;;;;4994335;28;20056;-40
2023/03/08 11:11:48;;;;;;;3.25;2.25;;;;;;;;;;4994537;28;20050;-36
2023/03/08 11:14:15;;;;;;;4.00;2.50;;;21.10;67.10;;;;;;4994187;28;20046;-38
2023/03/08 11:16:46;;;;;;;3.58;2.50;;;;;;;;;;4993823;28;20057;-40
2023/03/08 11:19:16;;;;;;;4.13;2.40;;;;;;;;;;4975838;28;20054;-41
2023/03/08 11:21:49;;;;;;;3.17;2.30;;;20.80;39.40;;;;;;4982978;28;20472;-42
2023/03/08 11:24:18;;;;;;;3.22;2.20;;;;;;;;;;4987409;28;20433;-37
2023/03/08 11:26:52;;;;;;;3.47;2.40;;;20.70;39.40;;;;;;4991690;28;20053;-40
2023/03/08 11:29:22;;;;;;;3.13;2.30;;;;;;;;;;4992075;28;20406;-40
2023/03/08 11:31:53;;;;;;;4.65;2.08;;;20.60;39.50;;;;;;4992916;28;20061;-37
2023/03/08 11:34:46;;;;;;;3.28;2.20;;;20.50;39.60;;;;;;4993117;28;20167;-39
2023/03/08 11:37:15;;;;;;;4.32;2.10;;;20.50;39.80;;;;;;4982913;28;20050;-39
2023/03/08 11:39:44;;;;;;;2.92;2.28;;;20.40;39.80;;;;;;4992826;28;20484;-41
2023/03/08 11:42:17;;;;;;;2.88;2.08;;;20.40;39.90;;;;;;4992062;28;20054;-41
2023/03/08 11:44:54;;;;;;;4.68;2.55;;;20.30;40.00;;;;;;4992888;28;20665;-40
2023/03/08 11:47:44;;;;;;;2.92;2.05;;;20.20;40.00;;;;;;4993148;28;20059;-39
2023/03/08 11:50:16;;;;;;;4.55;2.45;;;20.20;40.10;;;;;;4970872;28;20054;-38
2023/03/08 11:52:45;;;;;;;4.38;2.00;;;;;;;;;;4993540;28;20050;-40
2023/03/08 11:55:23;;;;;;;3.45;2.45;;;;;;;;;;4991664;28;20046;-41
2023/03/08 11:57:52;;;;;;;5.28;2.28;;;;;;;;;;4990305;28;20050;-41
2023/03/08 12:00:23;;;;;;;5.25;2.50;;;;;;;;;;4988123;28;20133;-33
2023/03/08 12:02:50;;;;;;;3.90;2.35;;;;;;;;;;4985923;28;20052;-38
2023/03/08 12:05:22;;;;;;;6.80;2.65;;;19.90;40.00;;;;;;4991687;28;20054;-40
2023/03/08 12:07:51;;;;;;;5.55;2.10;;;19.90;40.40;;;;;;4990821;28;20057;-41
2023/03/08 12:10:19;;;;;;;6.70;2.03;;;;;;;;;;4992292;28;20054;-39
2023/03/08 12:12:47;;;;;;;6.13;2.50;;;;;;;;;;4992628;28;20042;-38
2023/03/08 12:15:22;;;;;;;5.00;1.95;;;19.80;40.30;;;;;;4993105;28;20050;-36
2023/03/08 12:17:50;;;;;;;6.00;2.10;;;;;;;;;;4991690;28;20064;-41
2023/03/08 12:20:18;;;;;;;4.70;2.00;;;19.40;68.10;;;;;;4993183;28;20054;-41
2023/03/08 12:22:45;;;;;;;4.32;1.98;;;;;;;;;;4992847;28;20047;-41
2023/03/08 12:25:17;;;;;;;2.67;1.75;;;19.70;40.20;;;;;;4992520;28;20631;-41
2023/03/08 12:27:45;;;;;;;3.08;1.80;;;19.80;49.90;;;;;;4992970;28;20056;-36
2023/03/08 12:30:16;;;;;;;3.90;1.80;;;;;;;;;;4992828;28;20517;-40
2023/03/08 12:32:43;;;;;;;4.30;1.83;;;20.00;68.10;;;;;;4992431;28;20058;-41
2023/03/08 12:35:24;;;;;;;3.53;1.63;;;;;;;;;;4992619;28;20054;-42
2023/03/08 12:37:55;;;;;;;4.32;1.75;;;;;;;;;;4992519;28;20050;-43
2023/03/08 12:40:37;;;;;;;6.18;2.05;;;19.70;40.10;;;;;;4992320;28;20042;-42
2023/03/08 12:43:04;;;;;;;3.45;1.80;;;;;;;;;;4992754;28;20057;-40
2023/03/08 12:45:33;;;;;;;4.38;1.90;;;19.70;40.20;;;;;;4992757;28;20426;-42
2023/03/08 12:48:24;;;;;;;3.25;1.80;;;;;;;;;;4992791;28;20050;-39
2023/03/08 12:51:01;;;;;;;2.25;1.60;;;19.80;40.20;;;;;;4977972;28;20133;-40
2023/03/08 12:53:36;;;;;;;4.18;1.50;;;19.70;40.10;;;;;;4992150;28;20058;-40
2023/03/08 12:56:05;;;;;;;1.98;1.45;;;;;;;;;;4992452;28;20046;-39
2023/03/08 12:58:31;;;;;;;2.53;1.88;;;19.30;67.80;;;;;;4992055;28;20054;-40
2023/03/08 13:01:01;;;;;;;4.25;1.70;;;19.80;40.00;;;;;;4992518;28;20046;-41
2023/03/08 13:03:29;;;;;;;2.78;1.60;;;19.90;40.00;;;;;;4992206;28;20047;-42
2023/03/08 13:05:56;;;;;;;2.85;1.50;;;19.70;67.80;;;;;;4992260;28;20060;-41
2023/03/08 13:08:28;;;;;;;3.53;1.60;;;19.80;39.90;;;;;;4992459;28;20450;-42
2023/03/08 13:11:03;;;;;;;2.13;1.60;;;;;;;;;;4992451;28;20050;-38
2023/03/08 13:13:37;;;;;;;4.90;1.70;;;19.90;40.00;;;;;;4992060;28;20054;-42
2023/03/08 13:16:08;;;;;;;3.13;1.50;;;19.90;39.90;;;;;;4991929;28;20062;-42
2023/03/08 13:18:35;;;;;;;3.30;1.50;;;19.60;68.50;;;;;;4992062;28;20050;-42
2023/03/08 13:21:18;;;;;;;1.70;1.40;;;20.00;39.90;;;;;;4992165;28;20059;-42
2023/03/08 13:23:48;;;;;;;5.40;1.48;;;20.00;39.90;;;;;;4991926;28;20118;-41
2023/03/08 13:26:57;;;;;;;4.13;1.65;;;20.10;40.00;;;;;;4992033;28;20056;-40
2023/03/08 13:29:28;;;;;;;2.85;1.30;;;;;;;;;;4970340;28;20052;-41
2023/03/08 13:31:56;;;;;;;3.03;1.40;;;20.10;40.00;;;;;;4991554;28;20373;-42
2023/03/08 13:34:25;;;;;;;2.80;1.67;;;20.20;40.00;;;;;;4981738;28;20047;-42
2023/03/08 13:36:53;;;;;;;2.28;1.30;;;;;;;;;;4980870;28;20070;-41
2023/03/08 13:39:21;;;;;;;2.92;1.50;;;20.20;40.10;;;;;;4992224;28;20415;-38
2023/03/08 13:41:48;;;;;;;2.05;1.30;;;;;;;;;;4992300;28;20403;-41
2023/03/08 13:44:16;;;;;;;3.72;1.40;;;19.90;68.00;;;;;;4983993;28;20060;-41
2023/03/08 13:46:42;;;;;;;1.65;1.20;;;20.90;44.80;;;;;;4982877;28;20053;-39
2023/03/08 13:49:15;;;;;;;2.35;1.30;;;;;;;;;;4972674;28;20061;-42
2023/03/08 13:51:42;;;;;;;3.92;1.50;;;;;;;;;;4982595;28;20142;-41
2023/03/08 13:54:13;;;;;;;2.30;1.20;;;20.20;40.00;;;;;;4991984;28;20054;-40
2023/03/08 13:56:40;;;;;;;2.55;1.40;;;;;;;;;;4992187;28;20050;-40
2023/03/08 13:59:12;;;;;;;2.10;1.33;;;21.60;65.90;;;;;;4991826;28;20056;-41
2023/03/08 14:01:46;;;;;;;2.08;1.27;;;;;;;;;;4990829;28;20038;-40
2023/03/08 14:04:17;;;;;;;2.65;1.27;;;20.30;40.10;;;;;;4991316;28;20443;-38
2023/03/08 14:06:48;;;;;;;3.83;1.50;;;20.20;40.00;;;;;;4988881;28;20053;-42
2023/03/08 14:09:18;;;;;;;2.72;1.40;;;20.10;68.60;;;;;;4986517;28;20126;-37
2023/03/08 14:11:45;;;;;;;2.33;1.30;;;;;;;;;;4993235;28;20092;-41
2023/03/08 14:14:15;;;;;;;3.67;1.27;;;;;;;;;;4991744;28;20046;-39